地図

経路データ

SID SEASON NUMBER BASIN SUBBASIN NAME ISO_TIME NATURE LAT LON WMO_WIND WMO_PRES WMO_AGENCY TRACK_TYPE DIST2LAND LANDFALL IFLAG USA_AGENCY USA_ATCF_ID USA_LAT USA_LON USA_RECORD USA_STATUS USA_WIND USA_PRES USA_SSHS USA_R34_NE USA_R34_SE USA_R34_SW USA_R34_NW USA_R50_NE USA_R50_SE USA_R50_SW USA_R50_NW USA_R64_NE USA_R64_SE USA_R64_SW USA_R64_NW USA_POCI USA_ROCI USA_RMW USA_EYE TOKYO_LAT TOKYO_LON TOKYO_GRADE TOKYO_WIND TOKYO_PRES TOKYO_R50_DIR TOKYO_R50_LONG TOKYO_R50_SHORT TOKYO_R30_DIR TOKYO_R30_LONG TOKYO_R30_SHORT TOKYO_LAND CMA_LAT CMA_LON CMA_CAT CMA_WIND CMA_PRES HKO_LAT HKO_LON HKO_CAT HKO_WIND HKO_PRES NEWDELHI_LAT NEWDELHI_LON NEWDELHI_GRADE NEWDELHI_WIND NEWDELHI_PRES NEWDELHI_CI NEWDELHI_DP NEWDELHI_POCI REUNION_LAT REUNION_LON REUNION_TYPE REUNION_WIND REUNION_PRES REUNION_TNUM REUNION_CI REUNION_RMW REUNION_R34_NE REUNION_R34_SE REUNION_R34_SW REUNION_R34_NW REUNION_R50_NE REUNION_R50_SE REUNION_R50_SW REUNION_R50_NW REUNION_R64_NE REUNION_R64_SE REUNION_R64_SW REUNION_R64_NW BOM_LAT BOM_LON BOM_TYPE BOM_WIND BOM_PRES BOM_TNUM BOM_CI BOM_RMW BOM_R34_NE BOM_R34_SE BOM_R34_SW BOM_R34_NW BOM_R50_NE BOM_R50_SE BOM_R50_SW BOM_R50_NW BOM_R64_NE BOM_R64_SE BOM_R64_SW BOM_R64_NW BOM_ROCI BOM_POCI BOM_EYE BOM_POS_METHOD BOM_PRES_METHOD NADI_LAT NADI_LON NADI_CAT NADI_WIND NADI_PRES WELLINGTON_LAT WELLINGTON_LON WELLINGTON_WIND WELLINGTON_PRES DS824_LAT DS824_LON DS824_STAGE DS824_WIND DS824_PRES TD9636_LAT TD9636_LON TD9636_STAGE TD9636_WIND TD9636_PRES TD9635_LAT TD9635_LON TD9635_WIND TD9635_PRES TD9635_ROCI NEUMANN_LAT NEUMANN_LON NEUMANN_CLASS NEUMANN_WIND NEUMANN_PRES MLC_LAT MLC_LON MLC_CLASS MLC_WIND MLC_PRES USA_GUST BOM_GUST BOM_GUST_PER REUNION_GUST REUNION_GUST_PER USA_SEAHGT USA_SEARAD_NE USA_SEARAD_SE USA_SEARAD_SW USA_SEARAD_NW STORM_SPEED STORM_DIR
1966030S18201 1966 8 SP MM NOT_NAMED 1966-01-29 12:00:00 TS -17.5000 -159.400 main 1431 1431 O________OO_O_ jtwc_sh SH191966 -17.5000 -159.400 -1 -17.5000 200.600 TC 25 -17.5000 -159.400 1 -17.5000 -159.400 TC 20 19 133
1966030S18201 1966 8 SP MM NOT_NAMED 1966-01-29 15:00:00 TS -18.1564 -158.665 main 1524 1524 P________PP_P_ SH191966 -18.1556 -158.644 -1 -18.1556 -158.644 TC 25 -18.1588 -158.657 1 -18.1554 -158.716 TC 22 19 133
1966030S18201 1966 8 SP MM NOT_NAMED 1966-01-29 18:00:00 TS -18.8008 -157.930 main 1625 1625 O________OP_O_ jtwc_sh SH191966 -18.8000 -157.900 -1 -18.8000 202.100 TC 25 -18.8030 -157.918 1 -18.8000 -158.000 TC 25 19 132
1966030S18201 1966 8 SP MM NOT_NAMED 1966-01-29 21:00:00 TS -19.4219 -157.202 main 1716 1716 P________PP_P_ SH191966 -19.4222 -157.185 -1 -19.4222 -157.185 TC 25 -19.4206 -157.195 1 -19.4224 -157.242 TC 27 18 132
1966030S18201 1966 8 SP MM NOT_NAMED 1966-01-30 00:00:00 TS -20.0000 -156.500 main 1807 1807 O________OO_O_ jtwc_sh SH191966 -20.0000 -156.500 -1 -20.0000 203.500 TC 25 -20.0000 -156.500 1 -20.0000 -156.500 TC 30 17 131
1966030S18201 1966 8 SP MM NOT_NAMED 1966-01-30 03:00:00 TS -20.5196 -155.839 main 1895 1895 P________PP_P_ SH191966 -20.5147 -155.842 -1 -20.5147 -155.842 TC 25 -20.5344 -155.838 1 -20.5146 -155.834 TC 30 16 130
1966030S18201 1966 8 SP MM NOT_NAMED 1966-01-30 06:00:00 TS -21.0088 -155.199 main 1973 1973 O________OP_O_ jtwc_sh SH191966 -21.0000 -155.200 -1 -21.0000 204.800 TC 25 -21.0354 -155.197 1 -21.0000 -155.200 TC 30 16 129
1966030S18201 1966 8 SP MM NOT_NAMED 1966-01-30 09:00:00 TS -21.5044 -154.557 main 2052 2052 P________PP_P_ SH191966 -21.4997 -154.557 -1 -21.4997 -154.557 TC 25 -21.5187 -154.557 1 -21.4997 -154.557 TC 30 16 129
1966030S18201 1966 8 SP MM NOT_NAMED 1966-01-30 12:00:00 TS -22.0000 -153.900 main 2140 2140 O________OO_O_ jtwc_sh SH191966 -22.0000 -153.900 -1 -22.0000 206.100 TC 25 -22.0000 -153.900 1 -22.0000 -153.900 TC 30 16 129
1966030S18201 1966 8 SP MM NOT_NAMED 1966-01-30 15:00:00 TS -22.4822 -153.239 main 2228 2228 P________PP_P_ SH191966 -22.4997 -153.214 -1 -22.4997 -153.214 TC 25 -22.4297 -153.312 1 -22.4997 -153.214 TC 30 16 128
1966030S18201 1966 8 SP MM NOT_NAMED 1966-01-30 18:00:00 TS -22.9678 -152.547 main 2315 2315 O________OP_O_ jtwc_sh SH191966 -23.0000 -152.500 -1 -23.0000 207.500 TC 25 -22.8712 -152.689 1 -23.0000 -152.500 TC 30 16 127
1966030S18201 1966 8 SP MM NOT_NAMED 1966-01-30 21:00:00 TS -23.4302 -151.879 main 2389 2389 P________PP_P_ SH191966 -23.4530 -151.852 -1 -23.4530 -151.852 TC 25 -23.3774 -151.946 1 -23.4376 -151.866 TC 30 18 126
1966030S18201 1966 8 SP MM NOT_NAMED 1966-01-31 00:00:00 TS -24.0000 -151.000 main 2500 2500 O________OO_O_ jtwc_sh SH191966 -24.0000 -151.000 -1 -24.0000 209.000 TC 25 -24.0000 -151.000 1 -24.0000 -151.000 TC 30 24 124
1966030S18201 1966 8 SP MM NOT_NAMED 1966-01-31 03:00:00 TS -24.7736 -149.679 main 2656 2656 P________PP_P_ SH191966 -24.7252 -149.726 -1 -24.7252 -149.726 TC 25 -24.8027 -149.652 1 -24.8414 -149.614 TC 30 31 123
1966030S18201 1966 8 SP MM NOT_NAMED 1966-01-31 06:00:00 TS -25.6774 -148.124 main 2844 2844 O________OP_O_ jtwc_sh SH191966 -25.6000 -148.200 -1 -25.6000 211.800 TC 25 -25.7095 -148.096 1 -25.8000 -148.000 TC 30 34 123
1966030S18201 1966 8 SP MM NOT_NAMED 1966-01-31 09:00:00 TS -26.6407 -146.509 main 3030 3030 P________PP_P_ SH191966 -26.5939 -146.557 -1 -26.5939 -146.557 TC 25 -26.6598 -146.491 1 -26.7153 -146.433 TC 30 34 125
1966030S18201 1966 8 SP MM NOT_NAMED 1966-01-31 12:00:00 TS -27.6000 -145.000 main 3210 3210 O________OO_O_ jtwc_sh SH191966 -27.6000 -145.000 -1 -27.6000 215.000 TC 25 -27.6000 -145.000 1 -27.6000 -145.000 TC 30 30 127
1966030S18201 1966 8 SP MM NOT_NAMED 1966-01-31 15:00:00 TS -28.4581 -143.800 main 3358 3358 P________PP_P_ SH191966 -28.4701 -143.792 -1 -28.4701 -143.792 TC 25 -28.4944 -143.754 1 -28.3977 -143.864 TC 27 26 131
1966030S18201 1966 8 SP MM NOT_NAMED 1966-01-31 18:00:00 TS -29.2876 -142.805 main 3482 3482 O________OP_O_ jtwc_sh SH191966 -29.3000 -142.800 -1 -29.3000 217.200 TC 25 -29.3503 -142.722 1 -29.2000 -142.900 TC 25 24 135
1966030S18201 1966 8 SP MM NOT_NAMED 1966-01-31 21:00:00 TS -30.1369 -141.891 main 3598 3598 P________PP_P_ SH191966 -30.1443 -141.889 -1 -30.1443 -141.889 TC 25 -30.1819 -141.829 1 -30.0771 -141.957 TC 22 23 138
1966030S18201 1966 8 SP MM NOT_NAMED 1966-02-01 00:00:00 TS -31.0000 -141.000 main 3717 O________OO_O_ jtwc_sh SH191966 -31.0000 -141.000 -1 -31.0000 219.000 TC 25 -31.0000 -141.000 1 -31.0000 -141.000 TC 20 23 138

デジタル台風データ・検索

IBTrACS Databaseについて

本データベースは、米国NOAAが公開する1842年以降の世界の熱帯低気圧のベストトラックデータアーカイブInternational Best Track Archive for Climate Stewardship (IBTrACS)を、ウェブで閲覧しやすい形式に変換したものです。

最終更新日:2021-10-08